createdAt,value
2019-03-08T00:02:24.106Z,6.68
2019-03-08T00:07:19.952Z,6.55
2019-03-08T00:12:15.853Z,6.47
2019-03-08T00:17:11.710Z,6.45
2019-03-08T00:22:10.058Z,6.52
2019-03-08T00:27:08.733Z,6.48
2019-03-08T00:32:04.776Z,6.47
2019-03-08T00:37:02.423Z,6.56
2019-03-08T00:41:58.300Z,6.59
2019-03-08T00:46:54.194Z,6.47
2019-03-08T00:51:50.303Z,6.43
2019-03-08T00:56:46.087Z,6.40
2019-03-08T01:01:41.931Z,6.34
2019-03-08T01:06:37.750Z,6.28
2019-03-08T01:11:33.560Z,6.20
2019-03-08T01:16:29.452Z,6.09
2019-03-08T01:21:25.432Z,5.89
2019-03-08T01:26:21.258Z,5.74
2019-03-08T01:31:17.135Z,5.76
2019-03-08T01:36:13.974Z,5.70
2019-03-08T01:41:15.612Z,5.69
2019-03-08T01:46:11.846Z,5.69
2019-03-08T01:51:17.141Z,5.69
2019-03-08T01:56:16.481Z,5.64
2019-03-08T02:01:12.713Z,5.60
2019-03-08T02:06:09.041Z,5.55
2019-03-08T02:11:04.930Z,5.61
2019-03-08T02:16:01.022Z,5.65
2019-03-08T02:21:06.248Z,5.63
2019-03-08T02:25:54.729Z,5.58
2019-03-08T02:30:50.645Z,5.44
2019-03-08T02:35:46.440Z,5.40
2019-03-08T02:40:42.340Z,5.29
2019-03-08T02:45:38.280Z,5.13
2019-03-08T02:50:34.121Z,4.89
2019-03-08T02:55:29.973Z,4.98
2019-03-08T03:00:30.342Z,5.03
2019-03-08T03:05:26.163Z,5.03
2019-03-08T03:10:22.007Z,4.77
2019-03-08T03:15:17.855Z,4.76
2019-03-08T03:20:14.104Z,4.78
2019-03-08T03:25:10.267Z,4.84
2019-03-08T03:30:07.433Z,4.89
2019-03-08T03:35:03.283Z,4.93
2019-03-08T03:39:59.206Z,4.83
2019-03-08T03:44:55.044Z,4.66
2019-03-08T03:49:50.919Z,4.40
2019-03-08T03:54:46.943Z,4.27
2019-03-08T03:59:42.956Z,4.38
2019-03-08T04:04:39.018Z,4.65
2019-03-08T04:09:34.875Z,4.79
2019-03-08T04:14:30.975Z,5.33
2019-03-08T04:19:26.914Z,5.73
2019-03-08T04:24:22.853Z,6.01
2019-03-08T04:29:18.719Z,6.19
2019-03-08T04:34:14.795Z,6.15
2019-03-08T04:39:11.001Z,6.21
2019-03-08T04:44:07.036Z,6.17
2019-03-08T04:49:02.929Z,6.16
2019-03-08T04:53:59.812Z,6.20
2019-03-08T04:58:59.132Z,6.30
2019-03-08T05:03:55.093Z,6.30
2019-03-08T05:08:50.944Z,6.33
2019-03-08T05:13:47.095Z,6.35
2019-03-08T05:18:43.015Z,6.30
2019-03-08T05:23:38.951Z,6.34
2019-03-08T05:28:34.901Z,6.34
2019-03-08T05:33:30.730Z,6.45
2019-03-08T05:38:26.974Z,6.55
2019-03-08T05:43:23.009Z,6.47
2019-03-08T05:48:22.529Z,6.49
2019-03-08T05:53:18.658Z,6.40
2019-03-08T05:58:14.693Z,6.34
2019-03-08T06:03:27.179Z,6.44
2019-03-08T06:08:23.218Z,6.49
2019-03-08T06:13:19.063Z,6.40
2019-03-08T06:18:18.075Z,6.27
2019-03-08T06:23:13.848Z,6.24
2019-03-08T06:28:43.312Z,6.19
2019-03-08T06:34:10.721Z,6.14
2019-03-08T06:39:09.039Z,6.16
2019-03-08T06:44:04.926Z,6.18
2019-03-08T06:49:02.630Z,6.25
2019-03-08T06:53:58.456Z,6.31
2019-03-08T06:59:08.488Z,6.45
2019-03-08T07:04:04.426Z,6.53
2019-03-08T07:09:00.340Z,6.70
2019-03-08T07:13:56.177Z,6.77
2019-03-08T07:18:52.333Z,6.87
2019-03-08T07:24:03.095Z,6.85
2019-03-08T07:29:26.664Z,6.90
2019-03-08T07:34:30.988Z,6.82
2019-03-08T07:39:51.750Z,6.96
2019-03-08T07:45:00.327Z,6.93
2019-03-08T07:50:13.713Z,6.98
2019-03-08T07:55:34.642Z,6.97
2019-03-08T08:00:47.520Z,6.99
2019-03-08T08:06:16.553Z,7.06
2019-03-08T08:11:43.419Z,7.09
2019-03-08T08:17:01.285Z,7.23
2019-03-08T08:22:24.008Z,7.39
2019-03-08T08:27:41.594Z,7.50
2019-03-08T08:33:02.322Z,7.73
2019-03-08T08:38:25.738Z,8.05
2019-03-08T08:43:49.578Z,8.26
2019-03-08T08:49:10.446Z,8.16
2019-03-08T08:54:24.289Z,8.27
2019-03-08T08:59:48.081Z,8.24
2019-03-08T09:05:01.766Z,8.33
2019-03-08T09:10:11.980Z,8.34
2019-03-08T09:15:17.693Z,8.46
2019-03-08T09:20:31.776Z,8.45
2019-03-08T09:25:32.955Z,8.31
2019-03-08T09:30:43.780Z,8.25
2019-03-08T09:36:10.658Z,8.30
2019-03-08T09:41:31.650Z,8.35
2019-03-08T09:46:34.817Z,8.54
2019-03-08T09:51:52.598Z,8.81
2019-03-08T09:57:25.834Z,8.94
2019-03-08T10:02:38.880Z,8.89
2019-03-08T10:07:40.196Z,8.85
2019-03-08T10:12:54.031Z,8.85
2019-03-08T10:18:19.141Z,8.88
2019-03-08T10:23:36.625Z,8.86
2019-03-08T10:28:41.777Z,8.78
2019-03-08T10:39:21.421Z,8.72
2019-03-08T10:44:30.892Z,8.92
2019-03-08T10:49:44.633Z,9.20
2019-03-08T10:54:58.640Z,9.55
2019-03-08T11:00:24.887Z,9.50
2019-03-08T11:05:31.904Z,9.55
2019-03-08T11:10:52.881Z,9.71
2019-03-08T11:16:06.338Z,9.74
2019-03-08T11:21:32.415Z,9.76
2019-03-08T11:26:45.559Z,9.61
2019-03-08T11:32:28.474Z,9.54
2019-03-08T11:46:33.118Z,9.57
2019-03-08T12:09:36.488Z,9.63
2019-03-08T12:21:00.500Z,9.11
2019-03-08T12:26:57.868Z,9.51
2019-03-08T12:32:27.927Z,9.30
2019-03-08T12:38:14.317Z,9.31
2019-03-08T12:43:40.973Z,9.42
2019-03-08T12:49:26.830Z,9.18
2019-03-08T12:55:16.416Z,9.23
2019-03-08T13:01:08.711Z,8.94
2019-03-08T13:06:59.494Z,9.05
2019-03-08T13:11:49.563Z,8.90
2019-03-08T13:17:12.189Z,8.81
2019-03-08T13:22:39.621Z,8.96
2019-03-08T13:34:28.456Z,9.11
2019-03-08T13:44:59.627Z,8.73
2019-03-08T13:49:57.235Z,9.61
2019-03-08T13:54:56.286Z,9.82
2019-03-08T14:00:05.836Z,9.68
2019-03-08T14:05:15.235Z,9.78
2019-03-08T14:10:31.250Z,9.59
2019-03-08T14:15:47.522Z,9.56
2019-03-08T14:21:04.862Z,9.54
2019-03-08T14:26:51.511Z,9.44
2019-03-08T14:32:21.030Z,9.65
2019-03-08T14:37:48.246Z,9.59
2019-03-08T14:43:32.104Z,9.40
2019-03-08T14:49:09.938Z,9.41
2019-03-08T14:54:46.313Z,9.53
2019-03-08T14:59:41.947Z,9.59
2019-03-08T15:04:40.240Z,9.69
2019-03-08T15:09:46.931Z,10.09
2019-03-08T15:15:11.794Z,9.84
2019-03-08T15:20:15.120Z,9.65
2019-03-08T15:25:14.151Z,9.57
2019-03-08T15:30:43.162Z,9.36
2019-03-08T15:36:05.953Z,9.25
2019-03-08T15:41:06.671Z,9.12
2019-03-08T15:46:02.898Z,9.00
2019-03-08T15:50:59.555Z,9.00
2019-03-08T15:56:12.153Z,9.24
2019-03-08T16:01:08.144Z,9.02
2019-03-08T16:06:06.496Z,8.88
2019-03-08T16:11:01.886Z,8.83
2019-03-08T16:15:57.897Z,8.75
2019-03-08T16:20:56.175Z,8.68
2019-03-08T16:25:58.815Z,8.58
2019-03-08T16:31:42.187Z,8.44
2019-03-08T16:37:19.324Z,8.23
2019-03-08T16:42:23.954Z,8.20
2019-03-08T16:47:53.884Z,8.17
2019-03-08T16:53:40.239Z,8.00
2019-03-08T16:59:30.469Z,7.88
2019-03-08T17:05:09.246Z,7.74
2019-03-08T17:10:27.888Z,7.69
2019-03-08T17:15:52.136Z,7.60
2019-03-08T17:21:22.000Z,7.59
2019-03-08T17:26:48.144Z,7.48
2019-03-08T17:32:28.643Z,7.45
2019-03-08T17:37:57.503Z,7.54
2019-03-08T17:43:36.836Z,7.54
2019-03-08T17:54:34.575Z,7.45
2019-03-08T17:59:56.087Z,7.34
2019-03-08T18:10:43.712Z,7.12
2019-03-08T18:16:20.979Z,7.00
2019-03-08T18:22:08.717Z,6.95
2019-03-08T18:27:52.692Z,6.90
2019-03-08T18:33:27.871Z,6.88
2019-03-08T18:38:54.499Z,6.82
2019-03-08T18:44:13.868Z,6.77
2019-03-08T18:50:00.332Z,6.80
2019-03-08T18:55:47.832Z,6.75
2019-03-08T19:01:51.912Z,6.74
2019-03-08T19:07:33.646Z,6.80
2019-03-08T20:36:20.209Z,6.19
2019-03-08T20:41:35.169Z,6.16
2019-03-08T20:46:54.906Z,6.07
2019-03-08T20:51:57.765Z,6.01
2019-03-08T20:57:04.084Z,6.08
2019-03-08T21:02:00.158Z,6.07
2019-03-08T21:06:56.113Z,6.14
2019-03-08T21:11:52.061Z,6.09
2019-03-08T21:16:48.185Z,6.09
2019-03-08T21:21:44.147Z,6.12
2019-03-08T21:26:40.198Z,6.16
2019-03-08T21:31:36.075Z,6.18
2019-03-08T21:36:32.172Z,6.15
2019-03-08T21:41:28.102Z,6.00
2019-03-08T21:46:24.117Z,6.00
2019-03-08T21:51:19.971Z,5.98
2019-03-08T21:56:15.808Z,6.00
2019-03-08T22:01:11.761Z,5.95
2019-03-08T22:06:07.623Z,5.87
2019-03-08T22:11:18.782Z,5.89
2019-03-08T22:17:14.416Z,5.72
2019-03-08T22:22:10.470Z,5.61
2019-03-08T22:27:06.506Z,5.61
2019-03-08T22:32:02.549Z,5.65
2019-03-08T22:36:58.471Z,5.63
2019-03-08T22:41:54.361Z,5.67
2019-03-08T22:46:50.246Z,5.60
2019-03-08T22:51:47.723Z,5.40
2019-03-08T22:56:43.658Z,5.26
2019-03-08T23:02:00.050Z,5.15
2019-03-08T23:06:55.726Z,5.32
2019-03-08T23:11:51.807Z,5.53
2019-03-08T23:16:47.758Z,5.55
2019-03-08T23:21:43.634Z,5.64
2019-03-08T23:26:58.318Z,5.65
2019-03-08T23:31:59.461Z,5.67
2019-03-08T23:36:55.319Z,5.71
2019-03-08T23:41:53.688Z,5.78
2019-03-08T23:46:50.673Z,5.84
2019-03-08T23:51:46.744Z,5.82
2019-03-08T23:56:42.778Z,5.85
